Terminal Aerodrome Forecast
Issued by NWS

Home | Current Version | Previous Version | Graphics & Text | Print | Product List | Glossary On
Versions: 1 2 3 4 5 6 7 8 9 10 11 12 13 14 15 16 17 18 19
000
FTUS43 KABR 290500
TAFATY
TAF
KATY 290523Z 2906/3006 33011KT P6SM OVC035
     FM290800 31008KT P6SM OVC035
     FM291100 VRB04KT P6SM SKC
     FM291800 19008KT P6SM BKN250
     FM300200 VRB05KT P6SM OVC100=

USA.gov is the U.S. government's official web portal to all federal, state and local government web resources and services.